Time;durP1;ratioP1;P1;durP2;ratioP2;P2;SDS_P1;SDS_P2;PMS_P1;PMS_P2;Temp;Humidity;BMP_temperature;BMP_pressure;BME280_temperature;BME280_humidity;BME280_pressure;Samples;Min_cycle;Max_cycle;Signal;HPM_P1;HPM_P2
2020/12/23 00:00:00;;;;;;;;;;;13.40;82.40;;;;;;4735750;30;19925;-87
2020/12/23 00:02:25;;;;;;;;;;;13.40;82.50;;;;;;4735204;30;20018;-87
2020/12/23 00:04:51;;;;;;;;;;;13.40;82.50;;;;;;4735619;30;19922;-87
2020/12/23 00:07:16;;;;;;;;;;;13.40;82.50;;;;;;4752029;30;19922;-87
2020/12/23 00:09:42;;;;;;;;;;;13.40;82.50;;;;;;4751529;30;20300;-87
2020/12/23 00:12:08;;;;;;;;;;;13.40;82.50;;;;;;4769453;30;19994;-87
2020/12/23 00:14:33;;;;;;;;;;;13.40;82.50;;;;;;4772075;30;20365;-87
2020/12/23 00:16:59;;;;;;;;;;;13.40;82.50;;;;;;4758227;30;19924;-87
2020/12/23 00:19:24;;;;;;;;;;;13.40;82.50;;;;;;4747040;30;19978;-87
2020/12/23 00:21:50;;;;;;;;;;;13.40;82.50;;;;;;4740218;30;19929;-87
2020/12/23 00:24:15;;;;;;;;;;;13.40;82.40;;;;;;4755077;30;19918;-87
2020/12/23 00:26:43;;;;;;;;;;;13.40;82.50;;;;;;4740037;30;19925;-87
2020/12/23 00:29:09;;;;;;;;;;;13.40;82.50;;;;;;4754896;30;19925;-87
2020/12/23 00:31:34;;;;;;;;;;;13.40;82.50;;;;;;4770476;30;19918;-87
2020/12/23 00:34:00;;;;;;;;;;;13.40;82.50;;;;;;4740313;30;19921;-87
2020/12/23 00:36:25;;;;;;;;;;;13.40;82.50;;;;;;4740300;30;19925;-83
2020/12/23 00:38:51;;;;;;;;;;;13.40;82.40;;;;;;4763149;30;19925;-84
2020/12/23 00:41:17;;;;;;;;;;;13.40;82.50;;;;;;4757538;30;19918;-83
2020/12/23 00:43:43;;;;;;;;;;;13.40;82.50;;;;;;4772437;30;20024;-83
2020/12/23 00:46:12;;;;;;;;;;;13.40;82.50;;;;;;4772638;30;20075;-83
2020/12/23 00:48:41;;;;;;;;;;;13.30;82.40;;;;;;4788698;30;19921;-82
2020/12/23 00:51:15;;;;;;;;;;;13.30;82.50;;;;;;4772624;30;19914;-82
2020/12/23 00:53:42;;;;;;;;;;;13.30;82.50;;;;;;4788384;30;20319;-83
2020/12/23 00:56:08;;;;;;;;;;;13.30;82.40;;;;;;4772681;30;19990;-82
2020/12/23 00:58:33;;;;;;;;;;;13.30;82.50;;;;;;4787934;30;20404;-83
2020/12/23 01:00:59;;;;;;;;;;;13.30;82.40;;;;;;4788800;30;19954;-82
2020/12/23 01:03:24;;;;;;;;;;;13.30;82.50;;;;;;4772442;30;19937;-82
2020/12/23 01:05:50;;;;;;;;;;;13.30;82.50;;;;;;4771867;30;19917;-82
2020/12/23 01:08:16;;;;;;;;;;;13.30;82.50;;;;;;4772017;30;20016;-82
2020/12/23 01:10:46;;;;;;;;;;;13.30;82.50;;;;;;4787979;30;20332;-82
2020/12/23 01:13:12;;;;;;;;;;;13.30;82.50;;;;;;4772256;30;20004;-83
2020/12/23 01:15:37;;;;;;;;;;;13.30;82.50;;;;;;4788155;30;20014;-83
2020/12/23 01:18:03;;;;;;;;;;;13.30;82.50;;;;;;4772152;30;20011;-83
2020/12/23 01:20:28;;;;;;;;;;;13.30;82.50;;;;;;4788001;30;19913;-82
2020/12/23 01:22:57;;;;;;;;;;;13.30;82.50;;;;;;4772189;30;19957;-83
2020/12/23 01:25:22;;;;;;;;;;;13.30;82.50;;;;;;4771580;30;19917;-82
2020/12/23 01:27:48;;;;;;;;;;;13.30;82.50;;;;;;4763364;30;20408;-83
2020/12/23 01:30:16;;;;;;;;;;;13.30;82.50;;;;;;4754297;30;19922;-82
2020/12/23 01:32:42;;;;;;;;;;;13.30;82.60;;;;;;4739425;30;19928;-82
2020/12/23 01:35:07;;;;;;;;;;;13.30;82.60;;;;;;4770197;30;20340;-83
2020/12/23 01:37:33;;;;;;;;;;;13.30;82.60;;;;;;4753937;30;19918;-83
2020/12/23 01:39:58;;;;;;;;;;;13.30;82.60;;;;;;4753768;30;19926;-82
2020/12/23 01:42:24;;;;;;;;;;;13.30;82.60;;;;;;4753979;30;19925;-82
2020/12/23 01:44:49;;;;;;;;;;;13.30;82.60;;;;;;4753812;30;19918;-82
2020/12/23 01:47:18;;;;;;;;;;;13.30;82.60;;;;;;4754131;30;19987;-83
2020/12/23 01:49:43;;;;;;;;;;;13.30;82.50;;;;;;4769645;30;20452;-82
2020/12/23 01:52:09;;;;;;;;;;;13.30;82.50;;;;;;4769838;30;20029;-82
2020/12/23 01:54:34;;;;;;;;;;;13.30;82.50;;;;;;4769605;30;19926;-83
2020/12/23 01:57:01;;;;;;;;;;;13.30;82.60;;;;;;4770994;30;19953;-82
2020/12/23 01:59:26;;;;;;;;;;;13.30;82.60;;;;;;4755786;30;19921;-83
2020/12/23 02:02:01;;;;;;;;;;;13.20;82.50;;;;;;4754102;30;20348;-82
2020/12/23 02:04:32;;;;;;;;;;;13.30;82.60;;;;;;4753383;30;19921;-83
2020/12/23 02:06:57;;;;;;;;;;;13.30;82.60;;;;;;4770006;30;19921;-82
2020/12/23 02:09:24;;;;;;;;;;;13.30;82.60;;;;;;4769808;30;19941;-83
2020/12/23 02:11:49;;;;;;;;;;;13.20;82.60;;;;;;4771173;30;20000;-82
2020/12/23 02:14:15;;;;;;;;;;;13.20;82.60;;;;;;4756485;30;20092;-82
2020/12/23 02:16:40;;;;;;;;;;;13.20;82.60;;;;;;4770734;30;19924;-83
2020/12/23 02:19:06;;;;;;;;;;;13.20;82.60;;;;;;4756283;30;20357;-82
2020/12/23 02:21:31;;;;;;;;;;;13.20;82.60;;;;;;4786965;30;19918;-83
2020/12/23 02:23:57;;;;;;;;;;;13.20;82.60;;;;;;4787366;29;19922;-82
2020/12/23 02:26:22;;;;;;;;;;;13.20;82.60;;;;;;4771131;30;19926;-82
2020/12/23 02:28:48;;;;;;;;;;;13.20;82.60;;;;;;4758077;30;19933;-83
2020/12/23 02:31:14;;;;;;;;;;;13.20;82.60;;;;;;4753239;30;19953;-82
2020/12/23 02:33:39;;;;;;;;;;;13.20;82.60;;;;;;4753012;30;19918;-82
2020/12/23 02:36:05;;;;;;;;;;;13.20;82.60;;;;;;4752393;30;19914;-82
2020/12/23 02:38:30;;;;;;;;;;;13.20;82.60;;;;;;4740333;30;19930;-82
2020/12/23 02:40:56;;;;;;;;;;;13.20;82.70;;;;;;4769136;30;20335;-82
2020/12/23 02:43:21;;;;;;;;;;;13.20;82.60;;;;;;4769012;30;19918;-83
2020/12/23 02:45:47;;;;;;;;;;;13.20;82.70;;;;;;4752732;30;19929;-83
2020/12/23 02:48:12;;;;;;;;;;;13.10;82.70;;;;;;4769131;30;20029;-82
2020/12/23 02:50:38;;;;;;;;;;;13.20;82.70;;;;;;4767634;30;19925;-83
2020/12/23 02:53:03;;;;;;;;;;;13.10;82.60;;;;;;4752990;30;19933;-83
2020/12/23 02:55:29;;;;;;;;;;;13.10;82.70;;;;;;4752999;30;20281;-83
2020/12/23 02:57:54;;;;;;;;;;;13.10;82.70;;;;;;4761641;30;20397;-82
2020/12/23 03:00:20;;;;;;;;;;;13.10;82.80;;;;;;4750073;30;19918;-83
2020/12/23 03:02:45;;;;;;;;;;;13.10;82.80;;;;;;4735052;30;19922;-82
2020/12/23 03:05:11;;;;;;;;;;;13.10;82.80;;;;;;4756352;30;19918;-82
2020/12/23 03:07:36;;;;;;;;;;;13.10;82.90;;;;;;4767306;30;19987;-82
2020/12/23 03:10:02;;;;;;;;;;;13.10;82.90;;;;;;4750828;30;19926;-83
2020/12/23 03:12:28;;;;;;;;;;;13.10;82.90;;;;;;4750703;30;19926;-83
2020/12/23 03:14:53;;;;;;;;;;;13.10;82.90;;;;;;4749862;30;19922;-83
2020/12/23 03:17:19;;;;;;;;;;;13.10;82.90;;;;;;4749853;30;20322;-83
2020/12/23 03:19:44;;;;;;;;;;;13.10;83.00;;;;;;4764539;30;20123;-83
2020/12/23 03:22:10;;;;;;;;;;;13.10;83.00;;;;;;4765006;30;20435;-83
2020/12/23 03:24:35;;;;;;;;;;;13.00;83.00;;;;;;4750970;30;19969;-83
2020/12/23 03:27:01;;;;;;;;;;;13.00;83.00;;;;;;4749910;30;19922;-84
2020/12/23 03:29:26;;;;;;;;;;;13.00;83.10;;;;;;4749284;30;19925;-83
2020/12/23 03:31:52;;;;;;;;;;;13.10;83.10;;;;;;4749615;30;19938;-83
2020/12/23 03:34:17;;;;;;;;;;;13.00;83.10;;;;;;4751078;30;20376;-83
2020/12/23 03:36:43;;;;;;;;;;;13.10;83.10;;;;;;4749509;30;19918;-83
2020/12/23 03:39:08;;;;;;;;;;;13.10;83.70;;;;;;4767554;24;19978;-86
2020/12/23 03:41:34;;;;;;;;;;;13.10;83.10;;;;;;4769869;30;19929;-86
2020/12/23 03:44:00;;;;;;;;;;;13.10;83.10;;;;;;4755335;30;19971;-86
2020/12/23 03:46:26;;;;;;;;;;;13.10;83.10;;;;;;4754893;30;19918;-86
2020/12/23 03:48:51;;;;;;;;;;;13.10;83.10;;;;;;4773669;30;20392;-86
2020/12/23 03:51:17;;;;;;;;;;;13.10;83.10;;;;;;4759088;30;20364;-86
2020/12/23 03:53:42;;;;;;;;;;;13.10;83.10;;;;;;4755092;30;19934;-86
2020/12/23 03:56:08;;;;;;;;;;;13.10;83.00;;;;;;4755785;30;19922;-86
2020/12/23 03:58:33;;;;;;;;;;;13.10;83.10;;;;;;4755268;30;20291;-86
2020/12/23 04:00:59;;;;;;;;;;;13.20;83.70;;;;;;4755579;30;19918;-86
2020/12/23 04:03:24;;;;;;;;;;;13.10;83.00;;;;;;4755527;30;19918;-86
2020/12/23 04:05:50;;;;;;;;;;;13.10;83.10;;;;;;4746447;30;19928;-86
2020/12/23 04:08:15;;;;;;;;;;;13.10;83.10;;;;;;4749851;30;19922;-86
2020/12/23 04:10:41;;;;;;;;;;;13.10;83.20;;;;;;4773028;30;19918;-86
2020/12/23 04:13:06;;;;;;;;;;;13.10;83.20;;;;;;4773368;30;20235;-87
2020/12/23 04:15:32;;;;;;;;;;;13.20;83.20;;;;;;4773151;30;19968;-87
2020/12/23 04:17:57;;;;;;;;;;;13.20;83.30;;;;;;4770826;30;19922;-87
2020/12/23 04:20:23;;;;;;;;;;;13.20;83.50;;;;;;4762139;30;19922;-87
2020/12/23 04:22:49;;;;;;;;;;;13.20;83.60;;;;;;4786631;30;19937;-88
2020/12/23 04:25:14;;;;;;;;;;;13.20;83.80;;;;;;4773095;30;19944;-88
2020/12/23 04:27:40;;;;;;;;;;;13.20;83.90;;;;;;4755542;30;19914;-88
2020/12/23 04:30:06;;;;;;;;;;;13.20;83.80;;;;;;4755636;30;20012;-88
2020/12/23 04:32:32;;;;;;;;;;;13.20;84.50;;;;;;4771002;30;19926;-88
2020/12/23 04:35:01;;;;;;;;;;;13.20;83.80;;;;;;4771326;30;20365;-87
2020/12/23 04:37:27;;;;;;;;;;;13.20;84.10;;;;;;4740750;30;19918;-88
2020/12/23 04:39:52;;;;;;;;;;;13.20;84.00;;;;;;4771185;30;19936;-87
2020/12/23 04:42:19;;;;;;;;;;;13.20;83.90;;;;;;4740346;30;22352;-86
2020/12/23 04:44:45;;;;;;;;;;;13.20;83.90;;;;;;4754857;30;20569;-87
2020/12/23 04:47:14;;;;;;;;;;;13.20;83.90;;;;;;4772872;30;20446;-87
2020/12/23 04:49:44;;;;;;;;;;;13.30;83.90;;;;;;4788361;30;20380;-88
2020/12/23 04:52:09;;;;;;;;;;;13.30;83.80;;;;;;4788920;30;19920;-88
2020/12/23 04:54:35;;;;;;;;;;;13.30;83.80;;;;;;4754640;30;20374;-87
2020/12/23 04:57:02;;;;;;;;;;;13.30;83.80;;;;;;4755053;30;19922;-87
2020/12/23 04:59:27;;;;;;;;;;;13.30;83.80;;;;;;4768745;30;19925;-87
2020/12/23 05:01:53;;;;;;;;;;;13.30;84.40;;;;;;4754997;30;19917;-87
2020/12/23 05:04:18;;;;;;;;;;;13.30;83.70;;;;;;4755111;30;19924;-87
2020/12/23 05:06:44;;;;;;;;;;;13.30;83.70;;;;;;4754807;30;20012;-88
2020/12/23 05:09:09;;;;;;;;;;;13.30;83.80;;;;;;4755027;30;20157;-87
2020/12/23 05:11:35;;;;;;;;;;;13.30;83.70;;;;;;4754799;30;19979;-88
2020/12/23 05:14:07;;;;;;;;;;;13.40;83.80;;;;;;4769780;30;19926;-89
2020/12/23 05:16:33;;;;;;;;;;;13.40;83.70;;;;;;4754426;30;19929;-88
2020/12/23 05:18:59;;;;;;;;;;;13.40;83.70;;;;;;4777508;29;19918;-88
2020/12/23 05:21:25;;;;;;;;;;;13.40;83.60;;;;;;4772545;30;19917;-89
2020/12/23 05:23:51;;;;;;;;;;;13.40;83.60;;;;;;4771749;30;20277;-88
2020/12/23 05:26:17;;;;;;;;;;;13.40;83.60;;;;;;4773035;30;19924;-89
2020/12/23 05:28:43;;;;;;;;;;;13.40;83.60;;;;;;4757661;30;20518;-88
2020/12/23 05:31:09;;;;;;;;;;;13.40;83.60;;;;;;4788331;30;19928;-88
2020/12/23 05:33:36;;;;;;;;;;;13.40;83.60;;;;;;4772881;30;20360;-89
2020/12/23 05:36:06;;;;;;;;;;;13.40;83.50;;;;;;4765450;30;19925;-88
2020/12/23 05:38:32;;;;;;;;;;;13.40;83.50;;;;;;4764243;30;19937;-88
2020/12/23 05:41:01;;;;;;;;;;;13.40;83.50;;;;;;4749381;30;20273;-88
2020/12/23 05:43:28;;;;;;;;;;;13.40;83.60;;;;;;4762923;30;19924;-87
2020/12/23 05:46:00;;;;;;;;;;;13.40;83.60;;;;;;4748472;30;20341;-88
2020/12/23 05:48:29;;;;;;;;;;;13.40;83.80;;;;;;4777908;30;19917;-87
2020/12/23 05:50:55;;;;;;;;;;;13.40;83.80;;;;;;4777251;30;19927;-88
2020/12/23 05:53:21;;;;;;;;;;;13.40;83.80;;;;;;4760831;30;19918;-88
2020/12/23 05:55:47;;;;;;;;;;;13.40;83.80;;;;;;4760744;30;19971;-88
2020/12/23 05:58:30;;;;;;;;;;;13.40;83.80;;;;;;4749987;30;19933;-87
2020/12/23 06:00:57;;;;;;;;;;;13.40;83.80;;;;;;4783753;30;19960;-88
2020/12/23 06:03:42;;;;;;;;;;;13.40;83.80;;;;;;4771651;30;19971;-89
2020/12/23 06:06:11;;;;;;;;;;;13.40;83.80;;;;;;4770668;30;19947;-89
2020/12/23 06:08:37;;;;;;;;;;;13.40;83.80;;;;;;4782535;30;20012;-89
2020/12/23 06:11:21;;;;;;;;;;;13.40;83.80;;;;;;4770478;30;20023;-89
2020/12/23 06:14:05;;;;;;;;;;;13.40;83.80;;;;;;4783519;30;19921;-88
2020/12/23 06:16:31;;;;;;;;;;;13.40;83.90;;;;;;4779059;30;19921;-89
2020/12/23 06:18:59;;;;;;;;;;;13.40;83.90;;;;;;4752197;30;19925;-88
2020/12/23 06:21:26;;;;;;;;;;;13.40;84.00;;;;;;4752322;30;20192;-88
2020/12/23 06:23:59;;;;;;;;;;;13.40;83.90;;;;;;4767556;30;20281;-88
2020/12/23 06:26:28;;;;;;;;;;;13.40;83.90;;;;;;4771571;30;19971;-88
2020/12/23 06:28:55;;;;;;;;;;;13.40;84.00;;;;;;4771267;30;19917;-88
2020/12/23 06:31:23;;;;;;;;;;;13.40;83.90;;;;;;4769807;30;20016;-88
2020/12/23 06:33:48;;;;;;;;;;;13.50;83.90;;;;;;4771224;30;20365;-88
2020/12/23 06:36:14;;;;;;;;;;;13.50;83.90;;;;;;4756519;30;19923;-88
2020/12/23 06:38:39;;;;;;;;;;;13.50;84.00;;;;;;4770971;30;19929;-88
2020/12/23 06:41:05;;;;;;;;;;;13.50;84.00;;;;;;4771423;30;19922;-87
2020/12/23 06:43:52;;;;;;;;;;;13.50;84.00;;;;;;4755910;30;19917;-86
2020/12/23 06:46:17;;;;;;;;;;;13.50;84.00;;;;;;4785344;30;19922;-87
2020/12/23 06:48:43;;;;;;;;;;;13.50;84.00;;;;;;4753770;30;19929;-87
2020/12/23 06:51:08;;;;;;;;;;;13.50;83.90;;;;;;4738474;30;20452;-87
2020/12/23 06:53:34;;;;;;;;;;;13.50;84.00;;;;;;4768883;30;19972;-87
2020/12/23 06:56:00;;;;;;;;;;;13.50;84.10;;;;;;4769122;30;19914;-87
2020/12/23 06:58:38;;;;;;;;;;;13.50;84.00;;;;;;4752780;30;20361;-86
2020/12/23 07:01:20;;;;;;;;;;;13.50;84.00;;;;;;4764531;30;19985;-87
2020/12/23 07:03:46;;;;;;;;;;;13.50;83.90;;;;;;4748083;30;20344;-86
2020/12/23 07:06:28;;;;;;;;;;;13.50;83.90;;;;;;4775992;30;19961;-86
2020/12/23 07:08:54;;;;;;;;;;;13.50;83.90;;;;;;4776999;30;20223;-86
2020/12/23 07:11:20;;;;;;;;;;;13.50;83.90;;;;;;4781680;30;20370;-85
2020/12/23 07:13:48;;;;;;;;;;;13.50;83.90;;;;;;4785961;30;20008;-85
2020/12/23 07:16:14;;;;;;;;;;;13.50;83.90;;;;;;4757198;30;19918;-85
2020/12/23 07:18:40;;;;;;;;;;;13.50;83.90;;;;;;4735557;30;20404;-85
2020/12/23 07:21:07;;;;;;;;;;;13.50;83.90;;;;;;4751008;30;20307;-85
2020/12/23 07:23:33;;;;;;;;;;;13.50;83.90;;;;;;4764217;30;19921;-85
2020/12/23 07:26:02;;;;;;;;;;;13.50;83.90;;;;;;4783520;29;20317;-86
2020/12/23 07:28:38;;;;;;;;;;;13.50;83.90;;;;;;4781289;30;19953;-85
2020/12/23 07:31:04;;;;;;;;;;;13.50;83.90;;;;;;4773452;30;19917;-85
2020/12/23 07:33:30;;;;;;;;;;;13.50;83.90;;;;;;4772083;30;19968;-86
2020/12/23 07:35:57;;;;;;;;;;;13.50;83.80;;;;;;4772658;30;19979;-85
2020/12/23 07:38:23;;;;;;;;;;;13.50;83.80;;;;;;4753114;30;19940;-85
2020/12/23 07:40:52;;;;;;;;;;;13.50;83.80;;;;;;4784171;30;19922;-85
2020/12/23 07:43:18;;;;;;;;;;;13.50;83.80;;;;;;4772822;30;19926;-85
2020/12/23 07:45:44;;;;;;;;;;;13.50;83.80;;;;;;4785832;30;19914;-85
2020/12/23 07:48:11;;;;;;;;;;;13.50;83.80;;;;;;4770087;30;19917;-85
2020/12/23 07:50:38;;;;;;;;;;;13.50;83.80;;;;;;4783869;30;19924;-86
2020/12/23 07:53:13;;;;;;;;;;;13.50;83.80;;;;;;4768584;30;19930;-84
2020/12/23 07:55:40;;;;;;;;;;;13.50;83.80;;;;;;4783989;30;19917;-86
2020/12/23 07:58:06;;;;;;;;;;;13.50;83.80;;;;;;4769174;30;19925;-83
2020/12/23 08:00:31;;;;;;;;;;;13.50;83.70;;;;;;4753244;30;19925;-86
2020/12/23 08:02:57;;;;;;;;;;;13.50;83.80;;;;;;4780922;30;19921;-85
2020/12/23 08:05:22;;;;;;;;;;;13.50;83.90;;;;;;4754954;30;20249;-86
2020/12/23 08:07:48;;;;;;;;;;;13.50;83.90;;;;;;4767922;30;19953;-86
2020/12/23 08:10:15;;;;;;;;;;;13.50;83.80;;;;;;4755756;30;20009;-85
2020/12/23 08:12:41;;;;;;;;;;;13.50;83.80;;;;;;4780036;30;19969;-86
2020/12/23 08:15:11;;;;;;;;;;;13.50;83.90;;;;;;4755416;30;19925;-86
2020/12/23 08:17:37;;;;;;;;;;;13.50;83.90;;;;;;4767499;30;19947;-86
2020/12/23 08:20:03;;;;;;;;;;;13.50;83.90;;;;;;4767741;30;20028;-86
2020/12/23 08:22:29;;;;;;;;;;;13.50;83.90;;;;;;4752679;30;19925;-86
2020/12/23 08:25:01;;;;;;;;;;;13.40;83.80;;;;;;4752682;30;20486;-85
2020/12/23 08:27:27;;;;;;;;;;;13.50;83.90;;;;;;4764949;30;20029;-86
2020/12/23 08:29:53;;;;;;;;;;;13.50;83.90;;;;;;4753767;30;20293;-85
2020/12/23 08:32:21;;;;;;;;;;;13.50;83.90;;;;;;4763189;30;19989;-86
2020/12/23 08:34:47;;;;;;;;;;;13.40;83.90;;;;;;4764753;30;19929;-86
2020/12/23 08:37:20;;;;;;;;;;;13.50;83.90;;;;;;4773068;30;19921;-86
2020/12/23 08:39:51;;;;;;;;;;;13.40;83.90;;;;;;4766286;30;19937;-85
2020/12/23 08:42:17;;;;;;;;;;;13.50;84.00;;;;;;4766439;30;20046;-85
2020/12/23 08:44:42;;;;;;;;;;;13.50;83.90;;;;;;4762805;30;20016;-86
2020/12/23 08:47:08;;;;;;;;;;;13.40;83.90;;;;;;4746767;30;19979;-86
2020/12/23 08:49:40;;;;;;;;;;;13.50;83.90;;;;;;4760902;30;19979;-85
2020/12/23 08:52:15;;;;;;;;;;;13.40;83.80;;;;;;4786744;30;20012;-86
2020/12/23 08:54:42;;;;;;;;;;;13.50;84.00;;;;;;4770877;30;20066;-85
2020/12/23 08:57:09;;;;;;;;;;;13.40;84.00;;;;;;4774202;30;19921;-84
2020/12/23 08:59:38;;;;;;;;;;;13.40;84.00;;;;;;4757854;30;19918;-84
2020/12/23 09:02:11;;;;;;;;;;;13.50;84.10;;;;;;4772621;30;19921;-85
2020/12/23 09:04:36;;;;;;;;;;;13.50;84.10;;;;;;4768576;30;19917;-86
2020/12/23 09:07:02;;;;;;;;;;;13.50;84.10;;;;;;4775847;30;20361;-86
2020/12/23 09:09:27;;;;;;;;;;;13.50;84.00;;;;;;4755152;30;20391;-86
2020/12/23 09:11:54;;;;;;;;;;;13.50;84.10;;;;;;4754790;30;19914;-86
2020/12/23 09:14:26;;;;;;;;;;;13.50;84.20;;;;;;4770890;30;20438;-86
2020/12/23 09:16:54;;;;;;;;;;;13.40;84.40;;;;;;4765516;30;19957;-86
2020/12/23 09:19:20;;;;;;;;;;;13.50;84.40;;;;;;4765962;30;19921;-86
2020/12/23 09:21:55;;;;;;;;;;;13.50;84.30;;;;;;4772555;30;19918;-86
2020/12/23 09:24:21;;;;;;;;;;;13.50;84.30;;;;;;4756384;30;20008;-86
2020/12/23 09:26:47;;;;;;;;;;;13.50;84.40;;;;;;4752469;30;19941;-86
2020/12/23 09:29:15;;;;;;;;;;;13.50;84.40;;;;;;4763876;30;19952;-86
2020/12/23 09:31:53;;;;;;;;;;;13.50;84.50;;;;;;4763314;30;19924;-86
2020/12/23 09:34:22;;;;;;;;;;;13.50;84.60;;;;;;4762587;30;19921;-86
2020/12/23 09:36:55;;;;;;;;;;;13.50;84.40;;;;;;4763014;30;20416;-86
2020/12/23 09:39:20;;;;;;;;;;;13.60;84.40;;;;;;4763398;30;19930;-86
2020/12/23 09:41:46;;;;;;;;;;;13.60;84.40;;;;;;4747568;30;20433;-85
2020/12/23 09:44:13;;;;;;;;;;;13.60;84.30;;;;;;4763915;30;19918;-86
2020/12/23 09:46:38;;;;;;;;;;;13.60;84.30;;;;;;4763434;30;19922;-86
2020/12/23 09:49:04;;;;;;;;;;;13.60;84.30;;;;;;4779705;30;19921;-86
2020/12/23 09:51:29;;;;;;;;;;;13.60;84.30;;;;;;4748013;30;19926;-86
2020/12/23 09:53:55;;;;;;;;;;;13.70;84.40;;;;;;4780849;29;19932;-86
2020/12/23 09:56:20;;;;;;;;;;;13.70;84.40;;;;;;4763034;30;20269;-85
2020/12/23 09:58:46;;;;;;;;;;;13.70;84.40;;;;;;4747516;30;20369;-86
2020/12/23 10:01:11;;;;;;;;;;;13.70;84.30;;;;;;4748831;30;19937;-86
2020/12/23 10:03:37;;;;;;;;;;;13.70;84.40;;;;;;4748893;30;19961;-86
2020/12/23 10:06:02;;;;;;;;;;;13.70;85.00;;;;;;4752346;30;19925;-85
2020/12/23 10:08:28;;;;;;;;;;;13.70;84.40;;;;;;4748844;30;19945;-86
2020/12/23 10:10:53;;;;;;;;;;;13.70;84.30;;;;;;4748388;30;19921;-86
2020/12/23 10:13:19;;;;;;;;;;;13.70;84.30;;;;;;4741699;30;20301;-86
2020/12/23 10:15:44;;;;;;;;;;;13.80;84.30;;;;;;4747484;30;19922;-86
2020/12/23 10:18:10;;;;;;;;;;;13.80;84.20;;;;;;4757030;30;19922;-87
2020/12/23 10:20:35;;;;;;;;;;;13.80;84.20;;;;;;4757063;30;19929;-87
2020/12/23 10:23:01;;;;;;;;;;;13.80;84.20;;;;;;4755535;30;19975;-86
2020/12/23 10:25:26;;;;;;;;;;;13.80;84.40;;;;;;4771354;30;20329;-87
2020/12/23 10:27:52;;;;;;;;;;;13.80;84.40;;;;;;4753713;30;19926;-87
2020/12/23 10:30:17;;;;;;;;;;;13.80;84.40;;;;;;4753279;30;19983;-87
2020/12/23 10:32:43;;;;;;;;;;;13.80;84.30;;;;;;4766918;30;19922;-87
2020/12/23 10:35:08;;;;;;;;;;;13.80;84.30;;;;;;4752779;30;20016;-87
2020/12/23 10:37:35;;;;;;;;;;;13.80;84.30;;;;;;4753916;30;19918;-87
2020/12/23 10:40:01;;;;;;;;;;;13.80;84.20;;;;;;4765763;30;20389;-87
2020/12/23 10:42:30;;;;;;;;;;;13.90;84.20;;;;;;4763802;30;19940;-86
2020/12/23 10:44:56;;;;;;;;;;;13.90;84.20;;;;;;4771478;30;20032;-87
2020/12/23 10:47:21;;;;;;;;;;;13.90;84.30;;;;;;4756953;30;20440;-88
2020/12/23 10:49:49;;;;;;;;;;;13.90;84.20;;;;;;4770921;30;19917;-87
2020/12/23 10:52:14;;;;;;;;;;;13.90;84.20;;;;;;4756999;30;19918;-86
2020/12/23 10:54:40;;;;;;;;;;;13.90;84.20;;;;;;4770662;30;20273;-89
2020/12/23 10:57:05;;;;;;;;;;;13.90;84.20;;;;;;4774457;30;20257;-87
2020/12/23 10:59:31;;;;;;;;;;;13.90;84.20;;;;;;4771946;30;20057;-87
2020/12/23 11:01:57;;;;;;;;;;;13.90;84.50;;;;;;4786894;30;19922;-88
2020/12/23 11:04:23;;;;;;;;;;;13.90;85.10;;;;;;4770036;30;20403;-87
2020/12/23 11:06:49;;;;;;;;;;;13.90;84.40;;;;;;4769787;30;19925;-87
2020/12/23 11:09:14;;;;;;;;;;;13.90;84.50;;;;;;4752390;30;20301;-86
2020/12/23 11:11:40;;;;;;;;;;;13.90;84.50;;;;;;4769564;30;20289;-87
2020/12/23 11:14:05;;;;;;;;;;;13.90;84.60;;;;;;4771491;30;20014;-87
2020/12/23 11:16:31;;;;;;;;;;;13.90;84.60;;;;;;4771402;30;19940;-88
2020/12/23 11:18:56;;;;;;;;;;;13.90;84.70;;;;;;4762516;30;19918;-87
2020/12/23 11:21:22;;;;;;;;;;;13.80;84.90;;;;;;4753646;30;19918;-88
2020/12/23 11:23:49;;;;;;;;;;;13.80;84.90;;;;;;4773026;30;19928;-87
2020/12/23 11:26:15;;;;;;;;;;;13.80;84.90;;;;;;4771026;30;19918;-87
2020/12/23 11:28:41;;;;;;;;;;;13.80;84.90;;;;;;4752967;30;19922;-87
2020/12/23 11:31:06;;;;;;;;;;;13.80;84.90;;;;;;4768159;30;19917;-87
2020/12/23 11:33:32;;;;;;;;;;;13.80;85.10;;;;;;4768019;30;20364;-87
2020/12/23 11:35:57;;;;;;;;;;;13.80;85.00;;;;;;4760647;30;19997;-87
2020/12/23 11:38:23;;;;;;;;;;;13.80;85.10;;;;;;4738251;30;19926;-87
2020/12/23 11:40:49;;;;;;;;;;;13.80;85.10;;;;;;4752070;30;20277;-88
2020/12/23 11:43:15;;;;;;;;;;;13.80;85.10;;;;;;4753029;30;19971;-88
2020/12/23 11:45:40;;;;;;;;;;;13.80;85.10;;;;;;4752869;30;19926;-88
2020/12/23 11:48:06;;;;;;;;;;;13.80;85.10;;;;;;4750541;30;19927;-86
2020/12/23 11:50:31;;;;;;;;;;;13.80;85.10;;;;;;4751879;30;19960;-87
2020/12/23 11:52:57;;;;;;;;;;;13.90;85.10;;;;;;4771131;30;20269;-89
2020/12/23 11:55:23;;;;;;;;;;;13.90;85.00;;;;;;4749349;30;20274;-90
2020/12/23 11:57:48;;;;;;;;;;;13.90;84.90;;;;;;4760220;30;19976;-90
2020/12/23 12:00:14;;;;;;;;;;;13.90;84.90;;;;;;4762562;30;19921;-90
2020/12/23 12:02:39;;;;;;;;;;;13.90;84.80;;;;;;4749301;30;19922;-89
2020/12/23 12:05:07;;;;;;;;;;;13.90;84.80;;;;;;4760721;30;19926;-90
2020/12/23 12:07:33;;;;;;;;;;;13.90;84.70;;;;;;4764385;29;19928;-88
2020/12/23 12:09:58;;;;;;;;;;;13.90;84.70;;;;;;4782313;29;19921;-89
2020/12/23 12:12:25;;;;;;;;;;;13.90;84.70;;;;;;4762158;30;19918;-90
2020/12/23 12:14:50;;;;;;;;;;;13.90;84.70;;;;;;4782230;30;19920;-90
2020/12/23 12:17:16;;;;;;;;;;;13.90;84.60;;;;;;4750528;30;19921;-90
2020/12/23 12:19:41;;;;;;;;;;;14.00;84.70;;;;;;4750147;30;20049;-90
2020/12/23 12:22:07;;;;;;;;;;;13.90;84.60;;;;;;4763038;30;19937;-90
2020/12/23 12:24:32;;;;;;;;;;;14.00;84.70;;;;;;4769872;30;19968;-90
2020/12/23 12:26:58;;;;;;;;;;;14.00;84.60;;;;;;4749355;30;19944;-90
2020/12/23 12:29:23;;;;;;;;;;;14.00;84.60;;;;;;4751216;30;19937;-88
2020/12/23 12:31:51;;;;;;;;;;;14.00;84.60;;;;;;4761677;30;20337;-88
2020/12/23 12:34:16;;;;;;;;;;;14.00;84.60;;;;;;4765311;30;19921;-89
2020/12/23 12:36:42;;;;;;;;;;;13.90;84.60;;;;;;4750342;30;19939;-89
2020/12/23 12:39:07;;;;;;;;;;;14.00;84.60;;;;;;4753424;30;19936;-89
2020/12/23 12:41:33;;;;;;;;;;;13.90;84.60;;;;;;4759142;30;19955;-89
2020/12/23 12:43:58;;;;;;;;;;;14.00;84.60;;;;;;4752121;30;19922;-88
2020/12/23 12:46:24;;;;;;;;;;;14.00;84.60;;;;;;4754609;30;19984;-89
2020/12/23 12:48:49;;;;;;;;;;;14.00;84.60;;;;;;4760446;30;19982;-91
2020/12/23 12:51:15;;;;;;;;;;;14.00;84.60;;;;;;4787418;30;19933;-89
2020/12/23 12:53:40;;;;;;;;;;;14.00;84.60;;;;;;4777443;30;19918;-88
2020/12/23 12:56:06;;;;;;;;;;;14.00;84.60;;;;;;4773282;30;20482;-88
2020/12/23 12:58:32;;;;;;;;;;;14.00;84.60;;;;;;4758369;30;19914;-87
2020/12/23 13:00:58;;;;;;;;;;;14.00;84.50;;;;;;4763592;30;20400;-89
2020/12/23 13:03:23;;;;;;;;;;;14.00;84.50;;;;;;4773630;30;19969;-88
2020/12/23 13:05:51;;;;;;;;;;;14.00;84.50;;;;;;4758699;30;20361;-90
2020/12/23 13:08:19;;;;;;;;;;;14.00;84.50;;;;;;4779454;30;19918;-88
2020/12/23 13:10:46;;;;;;;;;;;14.00;84.50;;;;;;4789565;30;19918;-88
2020/12/23 13:13:11;;;;;;;;;;;13.90;84.40;;;;;;4773556;30;19922;-87
2020/12/23 13:15:37;;;;;;;;;;;14.00;84.50;;;;;;4768901;30;20008;-88
2020/12/23 13:18:02;;;;;;;;;;;13.90;84.50;;;;;;4773000;30;20354;-87
2020/12/23 13:20:28;;;;;;;;;;;13.90;84.60;;;;;;4757489;30;19925;-88
2020/12/23 13:22:54;;;;;;;;;;;13.90;84.60;;;;;;4764079;24;20423;-91
2020/12/23 13:25:19;;;;;;;;;;;13.90;84.60;;;;;;4737279;30;20017;-91
2020/12/23 13:27:57;;;;;;;;;;;13.90;84.70;;;;;;4716294;30;20021;-92
2020/12/23 13:31:02;;;;;;;;;;;;;;;;;;;;;
2020/12/23 13:33:32;;;;;;;;;;;13.90;84.70;;;;;;4744961;30;20373;-90
2020/12/23 13:36:01;;;;;;;;;;;13.90;84.70;;;;;;4739640;30;19918;-94
2020/12/23 13:38:27;;;;;;;;;;;13.90;84.70;;;;;;4737402;30;19998;-90
2020/12/23 13:40:59;;;;;;;;;;;13.90;84.70;;;;;;4737663;30;20057;-94
2020/12/23 13:43:32;;;;;;;;;;;13.90;84.70;;;;;;4737784;30;19922;-91
2020/12/23 13:45:57;;;;;;;;;;;13.90;84.80;;;;;;4717958;30;20293;-89
2020/12/23 13:48:23;;;;;;;;;;;13.90;84.90;;;;;;4721298;30;19919;-90
2020/12/23 13:50:51;;;;;;;;;;;13.90;84.80;;;;;;4723928;30;19926;-90
2020/12/23 13:53:16;;;;;;;;;;;13.90;84.80;;;;;;4719780;30;19926;-91
2020/12/23 13:55:42;;;;;;;;;;;13.80;84.90;;;;;;4734746;30;20434;-91
2020/12/23 13:58:08;;;;;;;;;;;13.80;84.90;;;;;;4736952;30;19922;-91
2020/12/23 14:00:36;;;;;;;;;;;13.90;85.00;;;;;;4736014;30;19925;-91
2020/12/23 14:03:06;;;;;;;;;;;13.90;85.00;;;;;;4735898;30;19956;-89
2020/12/23 14:05:34;;;;;;;;;;;13.90;85.00;;;;;;4720790;30;20030;-90
2020/12/23 14:08:02;;;;;;;;;;;13.90;85.00;;;;;;4735038;30;19914;-91
2020/12/23 14:10:29;;;;;;;;;;;13.90;85.10;;;;;;4736652;30;19918;-91
2020/12/23 14:12:55;;;;;;;;;;;13.90;85.10;;;;;;4734953;30;19918;-91
2020/12/23 14:15:21;;;;;;;;;;;13.90;85.10;;;;;;4736931;30;19914;-91